Time;durP1;ratioP1;P1;durP2;ratioP2;P2;SDS_P1;SDS_P2;PMS_P1;PMS_P2;Temp;Humidity;BMP_temperature;BMP_pressure;BME280_temperature;BME280_humidity;BME280_pressure;Samples;Min_cycle;Max_cycle;Signal;HPM_P1;HPM_P2
2021/07/29 00:01:18;;;;;;;9.27;6.97;;;;;;;21.50;67.09;99896.06;4915060;28;100947;-85
2021/07/29 00:03:43;;;;;;;16.25;6.88;;;;;;;21.56;67.04;99902.69;4915623;28;97049;-84
2021/07/29 00:06:15;;;;;;;9.70;7.20;;;;;;;21.61;66.69;99900.44;4915120;28;97078;-85
2021/07/29 00:08:41;;;;;;;14.18;6.68;;;;;;;21.52;66.59;99896.75;4913747;28;101528;-85
2021/07/29 00:11:07;;;;;;;9.40;5.78;;;;;;;21.50;66.65;99895.19;4947692;28;98140;-85
2021/07/29 00:13:33;;;;;;;10.05;5.93;;;;;;;21.48;67.05;99890.00;4930755;28;96519;-90
2021/07/29 00:16:02;;;;;;;13.50;7.07;;;;;;;21.43;67.22;99894.88;4913896;28;96947;-85
2021/07/29 00:21:13;;;;;;;10.15;6.07;;;;;;;21.48;66.69;99895.31;4947116;28;101261;-85
2021/07/29 00:23:38;;;;;;;11.48;7.10;;;;;;;21.48;66.58;99898.84;4915346;28;96651;-85
2021/07/29 00:26:04;;;;;;;17.85;6.32;;;;;;;21.40;66.97;99898.66;4915143;28;96972;-85
2021/07/29 00:28:30;;;;;;;11.27;6.70;;;;;;;21.31;67.16;99893.22;4915142;28;101890;-85
2021/07/29 00:30:55;;;;;;;14.60;6.60;;;;;;;21.35;67.26;99894.66;4914938;28;98013;-86
2021/07/29 00:33:21;;;;;;;9.48;6.38;;;;;;;21.31;67.18;99898.56;4946973;28;97183;-84
2021/07/29 00:35:46;;;;;;;11.07;6.90;;;;;;;21.23;67.37;99902.75;4910269;28;97143;-85
2021/07/29 00:38:12;;;;;;;9.27;6.32;;;;;;;21.21;67.30;99903.84;4897705;28;101643;-85
2021/07/29 00:40:37;;;;;;;13.90;5.60;;;;;;;21.20;66.59;99894.97;4898419;28;101181;-85
2021/07/29 00:43:03;;;;;;;13.45;6.03;;;;;;;21.10;66.74;99893.25;4930113;28;97612;-85
2021/07/29 00:45:28;;;;;;;10.48;5.45;;;;;;;21.16;66.19;99900.72;4931269;28;96995;-85
2021/07/29 00:47:54;;;;;;;11.63;5.10;;;;;;;21.12;65.58;99897.47;4898439;28;101339;-87
2021/07/29 00:50:20;;;;;;;9.73;5.30;;;;;;;21.03;66.08;99904.44;4915486;28;100450;-85
2021/07/29 00:52:49;;;;;;;13.63;5.32;;;;;;;21.08;65.79;99905.84;4915112;28;96577;-85
2021/07/29 00:55:18;;;;;;;8.57;5.40;;;;;;;21.09;65.68;99902.19;4930094;28;96847;-87
2021/07/29 00:57:44;;;;;;;14.73;5.55;;;;;;;21.15;64.96;99899.88;4926401;28;97405;-86
2021/07/29 01:00:10;;;;;;;10.80;5.15;;;;;;;21.10;65.51;99894.06;4910166;28;101428;-87
2021/07/29 01:02:35;;;;;;;9.30;4.50;;;;;;;21.01;65.49;99898.38;4879262;28;96716;-86
2021/07/29 01:05:01;;;;;;;11.18;5.28;;;;;;;20.97;65.64;99902.28;4895074;28;96914;-86
2021/07/29 01:07:27;;;;;;;13.23;4.60;;;;;;;20.96;64.76;99897.06;4911474;28;101182;-85
2021/07/29 01:09:52;;;;;;;11.05;4.55;;;;;;;21.02;64.05;99889.38;4911058;28;98955;-87
2021/07/29 01:12:21;;;;;;;14.90;4.40;;;;;;;20.87;64.57;99890.69;4895928;28;96613;-85
2021/07/29 01:14:50;;;;;;;11.10;4.57;;;;;;;20.79;64.87;99898.47;4912535;28;96821;-84
2021/07/29 01:17:16;;;;;;;13.30;4.57;;;;;;;20.66;64.99;99898.66;4903947;28;99062;-87
2021/07/29 01:19:41;;;;;;;8.07;4.05;;;;;;;20.76;64.91;99890.72;4930271;28;100411;-85
2021/07/29 01:22:07;;;;;;;12.13;4.50;;;;;;;20.71;65.01;99885.78;4916301;28;96936;-85
2021/07/29 01:24:32;;;;;;;10.10;5.07;;;;;;;20.75;65.03;99892.56;4901646;28;97117;-85
2021/07/29 01:26:58;;;;;;;10.13;5.03;;;;;;;20.80;64.63;99890.34;4917050;28;101206;-85
2021/07/29 01:29:23;;;;;;;7.63;4.43;;;;;;;20.74;65.14;99885.53;4917469;28;101177;-86
2021/07/29 01:31:49;;;;;;;12.02;4.35;;;;;;;20.72;65.09;99886.63;4933869;28;96890;-84
2021/07/29 01:34:16;;;;;;;11.02;4.70;;;;;;;20.62;65.19;99886.53;4917467;28;97186;-85
2021/07/29 01:36:42;;;;;;;13.20;5.00;;;;;;;20.62;65.20;99891.03;4918183;28;98193;-85
2021/07/29 01:39:13;;;;;;;10.65;4.40;;;;;;;20.57;65.61;99894.09;4912803;28;99048;-87
2021/07/29 01:41:39;;;;;;;9.35;4.55;;;;;;;20.56;65.73;99890.53;4901325;28;96724;-85
2021/07/29 01:44:05;;;;;;;8.77;4.28;;;;;;;20.55;65.84;99882.69;4916404;28;96853;-86
2021/07/29 01:46:30;;;;;;;11.35;4.45;;;;;;;20.49;66.03;99893.81;4933621;28;98199;-85
2021/07/29 01:48:56;;;;;;;8.77;4.70;;;;;;;20.43;65.81;99887.19;4933775;28;98346;-90
2021/07/29 01:51:21;;;;;;;10.20;4.40;;;;;;;20.54;65.69;99887.19;4901622;28;96851;-85
2021/07/29 01:53:47;;;;;;;9.38;4.55;;;;;;;20.45;65.64;99893.25;4934225;28;96812;-85
2021/07/29 01:56:14;;;;;;;9.43;4.30;;;;;;;20.42;65.51;99884.63;4933158;28;101757;-85
2021/07/29 01:58:39;;;;;;;9.88;4.30;;;;;;;20.43;65.79;99883.66;4932844;28;98022;-85
2021/07/29 02:01:05;;;;;;;9.00;4.35;;;;;;;20.31;65.77;99874.88;4933041;28;97063;-86
2021/07/29 02:03:36;;;;;;;7.63;4.13;;;;;;;20.31;65.99;99878.38;4918020;28;97082;-86
2021/07/29 02:06:02;;;;;;;12.38;4.13;;;;;;;20.39;65.71;99872.44;4932755;28;99985;-86
2021/07/29 02:08:28;;;;;;;9.68;4.20;;;;;;;20.37;65.43;99881.50;4901264;28;101171;-85
2021/07/29 02:10:53;;;;;;;7.85;4.20;;;;;;;20.38;65.46;99881.38;4933167;28;97248;-86
2021/07/29 02:13:19;;;;;;;7.25;4.70;;;;;;;20.34;65.40;99877.28;4933309;28;97038;-86
2021/07/29 02:15:44;;;;;;;9.00;4.20;;;;;;;20.29;65.25;99877.63;4932995;28;100231;-86
2021/07/29 02:18:10;;;;;;;7.10;4.63;;;;;;;20.21;65.13;99880.06;4932894;28;101213;-86
2021/07/29 02:20:35;;;;;;;7.18;4.05;;;;;;;20.18;65.52;99877.66;4932378;28;96722;-86
2021/07/29 02:23:01;;;;;;;10.73;4.40;;;;;;;20.20;65.18;99885.53;4932964;28;96899;-87
2021/07/29 02:25:26;;;;;;;9.18;4.57;;;;;;;20.13;65.54;99875.38;4916423;28;101556;-86
2021/07/29 02:27:52;;;;;;;6.43;3.63;;;;;;;20.16;65.35;99878.75;4917199;28;101292;-86
2021/07/29 02:30:18;;;;;;;9.23;4.40;;;;;;;20.01;65.91;99884.38;4932993;28;96800;-86
2021/07/29 02:32:43;;;;;;;7.35;3.75;;;;;;;19.98;66.01;99879.25;4916366;28;96690;-86
2021/07/29 02:35:09;;;;;;;10.23;4.28;;;;;;;19.95;66.06;99882.16;4932323;28;100142;-86
2021/07/29 02:37:35;;;;;;;14.63;4.82;;;;;;;19.89;66.38;99878.19;4916856;28;100454;-86
2021/07/29 02:40:00;;;;;;;11.15;4.07;;;;;;;19.77;66.70;99886.31;4932335;28;96733;-89
2021/07/29 02:42:27;;;;;;;11.63;3.90;;;;;;;19.81;66.63;99880.63;4932089;28;97182;-87
2021/07/29 02:44:52;;;;;;;6.07;4.45;;;;;;;19.87;66.76;99887.28;4916679;28;101096;-86
2021/07/29 02:47:18;;;;;;;10.98;4.30;;;;;;;19.89;66.64;99886.16;4916135;28;101328;-86
2021/07/29 02:49:43;;;;;;;10.80;4.38;;;;;;;19.82;66.85;99890.31;4917021;28;96566;-86
2021/07/29 02:52:09;;;;;;;13.98;4.90;;;;;;;19.98;66.30;99886.41;4916952;28;96827;-86
2021/07/29 02:54:34;;;;;;;9.43;4.53;;;;;;;19.81;66.63;99887.75;4932844;28;100313;-86
2021/07/29 02:57:00;;;;;;;11.25;4.28;;;;;;;19.68;67.20;99890.53;4916384;28;101802;-89
2021/07/29 02:59:26;;;;;;;8.07;4.30;;;;;;;19.68;67.15;99885.22;4916083;28;97663;-86
2021/07/29 03:01:51;;;;;;;9.90;4.93;;;;;;;19.63;67.18;99885.56;4915511;28;97509;-86
2021/07/29 03:04:17;;;;;;;11.35;4.30;;;;;;;19.57;67.20;99893.16;4915638;28;100993;-86
2021/07/29 03:06:42;;;;;;;8.05;4.88;;;;;;;19.64;67.12;99887.25;4932661;28;98442;-86
2021/07/29 03:09:10;;;;;;;7.38;4.75;;;;;;;19.56;67.37;99873.69;4916216;28;96617;-86
2021/07/29 03:11:35;;;;;;;9.93;5.10;;;;;;;19.52;67.69;99890.00;4932964;28;96917;-86
2021/07/29 03:14:01;;;;;;;11.52;4.72;;;;;;;19.60;67.40;99890.25;4916357;28;100910;-89
2021/07/29 03:16:26;;;;;;;17.10;5.20;;;;;;;19.60;67.23;99885.78;4916320;28;101846;-86
2021/07/29 03:18:52;;;;;;;13.50;5.03;;;;;;;19.55;67.51;99882.66;4932366;28;96818;-86
2021/07/29 03:21:17;;;;;;;9.98;4.28;;;;;;;19.60;67.72;99890.25;4915528;28;97057;-86
2021/07/29 03:23:43;;;;;;;13.82;4.90;;;;;;;19.71;66.68;99884.97;4931762;28;98485;-86
2021/07/29 03:26:08;;;;;;;7.55;4.40;;;;;;;19.73;67.04;99883.06;4931499;28;100816;-86
2021/07/29 03:28:34;;;;;;;8.75;5.00;;;;;;;19.74;67.08;99889.22;4915983;28;96911;-84
2021/07/29 03:30:59;;;;;;;13.32;5.25;;;;;;;19.72;66.97;99889.31;4932794;28;97001;-85
2021/07/29 03:33:25;;;;;;;15.82;5.72;;;;;;;19.66;67.15;99879.16;4931757;28;101914;-84
2021/07/29 03:35:51;;;;;;;13.07;5.25;;;;;;;19.68;67.21;99894.06;4932245;28;99826;-85
2021/07/29 03:38:16;;;;;;;7.75;5.13;;;;;;;19.67;67.31;99894.19;4931837;28;97160;-86
2021/07/29 03:40:42;;;;;;;7.53;4.82;;;;;;;19.60;67.22;99893.78;4932668;28;96744;-85
2021/07/29 03:43:08;;;;;;;9.68;5.47;;;;;;;19.57;67.39;99901.16;4929819;28;98057;-87
2021/07/29 03:45:36;;;;;;;9.23;5.03;;;;;;;19.48;67.37;99894.72;4914064;28;101373;-86
2021/07/29 03:48:02;;;;;;;11.80;5.30;;;;;;;19.46;67.34;99891.38;4898118;28;97203;-84
2021/07/29 03:50:29;;;;;;;12.23;5.40;;;;;;;19.66;66.60;99908.44;4914657;28;96979;-85
2021/07/29 03:52:54;;;;;;;15.32;5.40;;;;;;;19.63;66.11;99904.22;4915404;28;101839;-85
2021/07/29 03:55:20;;;;;;;9.90;6.15;;;;;;;19.58;66.07;99913.53;4914771;28;101170;-86
2021/07/29 03:57:46;;;;;;;13.43;5.20;;;;;;;19.62;66.11;99910.47;4899517;28;96669;-85
2021/07/29 04:00:12;;;;;;;7.05;4.82;;;;;;;19.79;65.39;99905.69;4931534;28;96815;-85
2021/07/29 04:02:39;;;;;;;12.20;5.13;;;;;;;19.69;65.46;99916.19;4899705;28;101416;-84
2021/07/29 04:05:06;;;;;;;13.95;5.45;;;;;;;19.47;66.41;99924.16;4915477;28;98138;-88
2021/07/29 04:07:33;;;;;;;12.38;4.32;;;;;;;19.64;66.05;99923.69;4915249;28;96887;-85
2021/07/29 04:09:58;;;;;;;9.50;4.53;;;;;;;19.54;66.25;99926.19;4931590;28;96864;-84
2021/07/29 04:12:24;;;;;;;8.50;4.82;;;;;;;19.65;65.80;99930.72;4931046;28;98116;-85
2021/07/29 04:14:49;;;;;;;8.93;5.10;;;;;;;19.64;66.19;99929.84;4931517;28;101279;-84
2021/07/29 04:17:17;;;;;;;8.68;5.07;;;;;;;19.86;65.31;99930.84;4915141;28;97176;-85
2021/07/29 04:19:43;;;;;;;11.68;4.15;;;;;;;19.81;65.36;99922.38;4947795;28;96835;-85
2021/07/29 04:22:08;;;;;;;12.52;4.57;;;;;;;19.87;65.57;99922.75;4931229;28;101324;-89
2021/07/29 04:24:34;;;;;;;8.05;4.25;;;;;;;19.88;65.17;99915.59;4914192;28;101504;-85
2021/07/29 04:27:00;;;;;;;12.30;4.82;;;;;;;19.94;65.67;99919.59;4915366;28;97256;-85
2021/07/29 04:29:26;;;;;;;13.30;4.85;;;;;;;19.98;65.24;99918.38;4914870;28;97432;-85
2021/07/29 04:31:53;;;;;;;13.02;4.88;;;;;;;20.15;64.45;99927.69;4898855;28;100354;-85
2021/07/29 04:34:18;;;;;;;11.40;5.03;;;;;;;20.40;63.55;99926.56;4898444;28;100961;-85
2021/07/29 04:36:44;;;;;;;9.35;4.97;;;;;;;20.50;63.08;99931.00;4931161;28;96853;-85
2021/07/29 04:39:10;;;;;;;16.67;5.30;;;;;;;20.38;64.31;99936.50;4914885;28;96993;-88
2021/07/29 04:41:40;;;;;;;12.43;5.22;;;;;;;20.66;63.88;99935.97;4898942;28;101001;-85
2021/07/29 04:44:07;;;;;;;13.03;5.10;;;;;;;20.69;63.83;99940.22;4914579;28;101295;-84
2021/07/29 04:46:37;;;;;;;13.13;4.88;;;;;;;20.76;63.85;99941.41;4930328;28;97002;-84
2021/07/29 04:49:03;;;;;;;10.40;5.03;;;;;;;20.96;62.91;99929.06;4947084;28;97006;-84
2021/07/29 04:51:29;;;;;;;20.55;5.95;;;;;;;21.27;62.07;99934.50;4930455;28;98088;-84
2021/07/29 04:53:54;;;;;;;10.07;5.28;;;;;;;21.47;61.87;99945.22;4931613;28;97485;-84
2021/07/29 04:56:20;;;;;;;11.70;6.18;;;;;;;21.54;61.90;99944.69;4949836;28;96879;-84
2021/07/29 04:58:49;;;;;;;12.57;5.53;;;;;;;21.74;61.33;99945.66;4950865;28;96780;-84
2021/07/29 05:01:15;;;;;;;9.13;5.40;;;;;;;21.93;60.85;99945.72;4917467;28;101340;-85
2021/07/29 05:03:40;;;;;;;10.38;5.68;;;;;;;22.09;60.37;99943.41;4934384;28;100172;-84
2021/07/29 05:06:06;;;;;;;8.80;5.88;;;;;;;22.28;59.95;99945.34;4933714;28;96957;-84
2021/07/29 05:08:31;;;;;;;10.32;4.88;;;;;;;22.44;59.21;99938.63;4933484;28;97427;-86
2021/07/29 05:10:57;;;;;;;6.55;5.30;;;;;;;22.50;59.19;99930.03;4917593;28;101656;-84
2021/07/29 05:13:23;;;;;;;9.30;5.13;;;;;;;22.83;58.78;99936.81;4933145;28;101634;-86
2021/07/29 05:15:48;;;;;;;7.72;5.28;;;;;;;22.99;58.50;99941.66;4934293;28;97059;-85
2021/07/29 05:18:14;;;;;;;7.72;5.18;;;;;;;23.17;58.20;99939.94;4917845;28;97291;-89
2021/07/29 05:20:39;;;;;;;8.77;5.88;;;;;;;23.34;57.51;99926.84;4934145;28;98551;-85
2021/07/29 05:23:05;;;;;;;13.48;5.60;;;;;;;23.58;56.81;99934.38;4933898;28;101291;-85
2021/07/29 05:25:32;;;;;;;7.00;5.10;;;;;;;23.63;56.99;99934.78;4932982;28;97653;-85
2021/07/29 05:27:57;;;;;;;10.48;6.00;;;;;;;23.81;56.82;99940.28;4916145;28;97307;-85
2021/07/29 05:30:23;;;;;;;8.18;5.22;;;;;;;24.04;56.03;99936.22;4916866;28;98418;-86
2021/07/29 05:32:48;;;;;;;12.00;5.05;;;;;;;24.38;55.28;99927.59;4917064;28;97820;-86
2021/07/29 05:35:14;;;;;;;7.30;5.13;;;;;;;24.67;54.86;99930.09;4911057;28;96797;-89
2021/07/29 05:37:39;;;;;;;5.78;4.78;;;;;;;25.07;53.89;99926.09;4917091;28;96972;-85
2021/07/29 05:40:06;;;;;;;7.63;4.53;;;;;;;25.57;52.49;99932.69;4917415;28;98454;-85
2021/07/29 05:42:32;;;;;;;8.98;4.93;;;;;;;26.18;50.38;99929.03;4929148;28;101081;-85
2021/07/29 05:44:58;;;;;;;5.45;4.95;;;;;;;26.93;49.08;99923.66;4921722;28;96696;-85
2021/07/29 05:47:24;;;;;;;7.15;5.03;;;;;;;27.82;47.59;99931.88;4900164;28;96921;-81
2021/07/29 05:49:49;;;;;;;8.80;5.45;;;;;;;28.94;44.59;99936.00;4938084;28;98226;-82
2021/07/29 05:52:15;;;;;;;8.65;4.95;;;;;;;29.96;43.39;99930.19;4921171;28;99285;-85
2021/07/29 05:54:40;;;;;;;8.10;5.05;;;;;;;30.63;41.40;99937.28;4937861;28;96840;-81
2021/07/29 05:57:06;;;;;;;9.15;4.97;;;;;;;31.32;39.98;99934.81;4928823;28;97032;-82
2021/07/29 05:59:32;;;;;;;8.45;4.28;;;;;;;32.06;39.37;99930.78;4907307;28;100056;-81
2021/07/29 06:01:57;;;;;;;7.88;4.45;;;;;;;32.27;37.34;99926.28;4915913;28;101140;-80
2021/07/29 06:04:23;;;;;;;6.57;4.47;;;;;;;33.19;36.74;99922.94;4931126;28;96724;-81
2021/07/29 06:06:48;;;;;;;8.35;4.25;;;;;;;34.05;35.87;99918.47;4913272;28;96801;-81
2021/07/29 06:09:14;;;;;;;6.32;4.18;;;;;;;34.41;35.04;99916.00;4895071;28;101269;-84
2021/07/29 06:11:39;;;;;;;9.57;4.20;;;;;;;35.01;34.17;99917.50;4915471;28;100989;-81
2021/07/29 06:14:05;;;;;;;7.70;4.18;;;;;;;35.76;33.09;99910.16;4898732;28;97872;-81
2021/07/29 06:16:30;;;;;;;7.75;4.43;;;;;;;36.26;32.55;99912.72;4906932;28;97371;-80
2021/07/29 06:21:31;;;;;;;4.95;3.35;;;;;;;36.91;32.04;99909.25;4931306;28;101449;-81
2021/07/29 06:23:57;;;;;;;6.15;3.55;;;;;;;37.41;31.33;99908.06;4933532;28;96880;-81
2021/07/29 06:26:22;;;;;;;4.38;3.05;;;;;;;37.71;30.75;99905.19;4906427;28;97321;-81
2021/07/29 06:28:48;;;;;;;9.07;3.70;;;;;;;38.03;29.38;99911.09;4934114;28;98025;-81
2021/07/29 06:31:13;;;;;;;6.70;4.15;;;;;;;38.26;29.00;99914.84;4913845;28;98458;-81
2021/07/29 06:33:39;;;;;;;3.95;3.20;;;;;;;37.95;29.87;99918.88;4927799;28;97010;-81
2021/07/29 06:36:05;;;;;;;4.25;3.25;;;;;;;37.59;29.75;99918.91;4915354;28;97008;-81
2021/07/29 06:38:31;;;;;;;4.78;3.13;;;;;;;35.45;32.51;99918.41;4906572;28;101718;-81
2021/07/29 06:40:59;;;;;;;6.75;3.58;;;;;;;34.94;33.18;99925.75;4915630;28;102355;-81
2021/07/29 06:43:25;;;;;;;3.53;3.22;;;;;;;36.34;31.49;99922.50;4927661;28;96820;-80
2021/07/29 06:45:50;;;;;;;4.25;3.67;;;;;;;37.79;29.58;99918.53;4928223;28;96856;-81
2021/07/29 06:48:17;;;;;;;5.97;3.75;;;;;;;37.96;29.45;99921.38;4888914;28;101537;-84
2021/07/29 06:50:43;;;;;;;4.15;3.42;;;;;;;38.02;29.22;99925.03;4908672;28;101453;-81
2021/07/29 06:53:09;;;;;;;4.28;3.45;;;;;;;38.29;29.18;99922.59;4915621;28;97161;-82
2021/07/29 06:55:34;;;;;;;3.92;2.70;;;;;;;37.57;28.97;99912.00;4899494;28;97052;-81
2021/07/29 06:58:00;;;;;;;5.07;3.00;;;;;;;37.81;29.42;99910.03;4916010;28;101567;-81
2021/07/29 07:00:26;;;;;;;3.53;3.08;;;;;;;38.15;28.89;99904.75;4913101;28;101741;-81
2021/07/29 07:02:52;;;;;;;3.28;2.97;;;;;;;38.54;28.65;99913.19;4912709;28;96964;-82
2021/07/29 07:05:17;;;;;;;3.20;2.90;;;;;;;38.78;28.44;99902.91;4897130;28;97804;-87
2021/07/29 07:07:43;;;;;;;3.25;2.95;;;;;;;38.50;28.95;99908.22;4923251;28;101858;-83
2021/07/29 07:10:09;;;;;;;6.95;3.30;;;;;;;38.27;29.50;99903.63;4908841;28;100295;-89
2021/07/29 07:12:36;;;;;;;3.63;3.30;;;;;;;38.22;28.59;99906.25;4914959;28;97152;-91
2021/07/29 07:15:03;;;;;;;5.45;3.25;;;;;;;38.03;28.91;99900.16;4915656;28;97045;-92
2021/07/29 07:17:28;;;;;;;3.83;3.53;;;;;;;38.12;29.09;99908.00;4913332;28;98046;-91
2021/07/29 07:19:58;;;;;;;3.72;2.90;;;;;;;38.23;28.35;99904.38;4932260;28;99718;-88
2021/07/29 07:22:24;;;;;;;3.08;2.78;;;;;;;37.70;29.17;99898.06;4915748;28;96757;-88
2021/07/29 07:24:50;;;;;;;3.47;2.95;;;;;;;38.11;29.03;99903.56;4929656;28;96752;-89
2021/07/29 07:27:15;;;;;;;3.65;3.08;;;;;;;37.92;28.52;99890.03;4938644;28;100522;-89
2021/07/29 07:29:41;;;;;;;6.28;2.70;;;;;;;37.98;28.85;99888.25;4937026;28;100358;-88
2021/07/29 07:32:06;;;;;;;3.42;2.90;;;;;;;38.50;28.73;99886.28;4929010;28;97784;-88
2021/07/29 07:34:32;;;;;;;4.05;3.05;;;;;;;38.25;27.99;99886.63;4899440;28;96989;-89
2021/07/29 07:36:58;;;;;;;4.22;2.80;;;;;;;38.44;28.74;99879.03;4914485;28;98201;-87
2021/07/29 07:39:24;;;;;;;4.25;2.90;;;;;;;38.61;27.99;99872.78;4908399;28;100338;-85
2021/07/29 07:41:49;;;;;;;4.40;3.30;;;;;;;38.82;28.02;99873.94;4896016;28;96726;-86
2021/07/29 07:44:15;;;;;;;4.45;2.90;;;;;;;38.71;27.52;99857.31;4916202;28;97017;-87
2021/07/29 07:46:40;;;;;;;2.95;2.65;;;;;;;39.36;27.34;99863.28;4898997;28;100094;-86
2021/07/29 07:49:06;;;;;;;4.70;2.80;;;;;;;39.84;26.89;99859.03;4931090;28;101582;-84
2021/07/29 07:51:31;;;;;;;3.13;2.65;;;;;;;40.23;26.13;99859.78;4926226;28;97313;-81
2021/07/29 07:53:57;;;;;;;4.43;2.78;;;;;;;40.57;25.91;99861.47;4915612;28;98199;-80
2021/07/29 07:56:22;;;;;;;3.50;2.85;;;;;;;40.71;25.85;99865.50;4886860;28;101588;-81
2021/07/29 07:58:48;;;;;;;5.45;3.33;;;;;;;41.07;25.55;99863.88;4925806;28;97859;-79
2021/07/29 08:01:15;;;;;;;3.20;2.90;;;;;;;41.13;25.11;99861.97;4933096;28;97078;-88
2021/07/29 08:03:40;;;;;;;6.38;2.92;;;;;;;41.20;25.02;99868.09;4930370;28;97366;-80
2021/07/29 08:06:06;;;;;;;2.50;2.30;;;;;;;38.78;26.87;99870.88;4930965;28;97424;-80
2021/07/29 08:08:31;;;;;;;3.10;2.70;;;;;;;38.68;27.85;99865.19;4913104;28;101738;-80
2021/07/29 08:10:57;;;;;;;3.10;2.75;;;;;;;38.07;28.77;99862.13;4926248;28;97946;-81
2021/07/29 08:13:22;;;;;;;3.47;2.90;;;;;;;37.28;29.58;99868.06;4929544;28;97093;-79
2021/07/29 08:15:48;;;;;;;3.25;2.97;;;;;;;36.67;30.21;99858.34;4905845;28;99254;-80
2021/07/29 08:18:15;;;;;;;3.13;2.60;;;;;;;37.49;29.94;99865.81;4929979;28;101542;-80
2021/07/29 08:20:41;;;;;;;5.43;2.95;;;;;;;39.24;27.65;99860.63;4913121;28;97191;-80
2021/07/29 08:23:08;;;;;;;6.53;2.75;;;;;;;38.08;28.87;99865.69;4929933;28;97341;-80
2021/07/29 08:25:34;;;;;;;5.00;3.22;;;;;;;39.72;26.06;99850.88;4929284;28;101329;-90
2021/07/29 08:27:59;;;;;;;3.17;2.70;;;;;;;39.07;26.57;99844.22;4925076;28;100287;-86
2021/07/29 08:30:24;;;;;;;5.03;3.38;;;;;;;38.47;27.55;99859.38;4910285;28;96874;-84
2021/07/29 08:32:50;;;;;;;4.70;3.15;;;;;;;37.26;29.19;99851.03;4890213;28;96907;-81
2021/07/29 08:35:16;;;;;;;3.38;2.72;;;;;;;37.62;28.66;99854.63;4916114;28;101258;-81
2021/07/29 08:37:44;;;;;;;4.38;2.97;;;;;;;36.66;29.77;99843.84;4928293;28;97918;-81
2021/07/29 08:40:11;;;;;;;7.00;2.90;;;;;;;35.44;31.41;99835.75;4930463;28;97236;-81
2021/07/29 08:42:37;;;;;;;3.40;3.10;;;;;;;34.87;32.33;99844.00;4913246;28;96861;-80
2021/07/29 08:45:03;;;;;;;4.50;2.90;;;;;;;34.56;32.39;99839.44;4930379;28;101464;-81
2021/07/29 08:47:32;;;;;;;3.15;2.88;;;;;;;34.43;31.80;99837.59;4913688;28;101576;-85
2021/07/29 08:50:05;;;;;;;3.75;2.83;;;;;;;33.81;33.12;99845.44;4914852;28;96636;-81
2021/07/29 08:52:31;;;;;;;8.70;3.88;;;;;;;35.56;31.89;99833.13;4897244;28;96903;-80
2021/07/29 08:54:57;;;;;;;4.03;3.63;;;;;;;37.01;30.14;99845.81;4930891;28;101567;-81
2021/07/29 08:57:42;;;;;;;3.65;3.22;;;;;;;35.53;31.56;99839.00;4931001;28;101525;-81
2021/07/29 09:00:13;;;;;;;7.18;3.33;;;;;;;35.86;31.77;99837.78;4928084;28;99314;-82
2021/07/29 09:02:38;;;;;;;4.07;3.67;;;;;;;37.07;28.58;99841.31;4910295;28;96903;-81
2021/07/29 09:05:15;;;;;;;3.38;3.08;;;;;;;36.35;29.73;99844.91;4901558;28;101762;-81
2021/07/29 09:07:41;;;;;;;5.10;3.15;;;;;;;35.66;31.17;99835.31;4929262;28;101720;-81
2021/07/29 09:10:24;;;;;;;6.68;3.40;;;;;;;35.03;32.13;99834.44;4910091;28;97324;-81
2021/07/29 09:13:06;;;;;;;4.00;3.30;;;;;;;34.07;32.98;99835.53;4916640;28;97815;-81
2021/07/29 09:15:32;;;;;;;4.38;3.25;;;;;;;35.75;30.95;99831.19;4895870;28;101561;-81
2021/07/29 09:17:57;;;;;;;4.57;3.20;;;;;;;37.01;28.69;99826.69;4911752;28;97858;-83
2021/07/29 09:20:23;;;;;;;5.15;3.53;;;;;;;34.89;30.78;99821.97;4909046;28;97987;-82
2021/07/29 09:22:53;;;;;;;6.15;3.50;;;;;;;34.17;32.95;99824.16;4905589;28;97419;-81
2021/07/29 09:25:21;;;;;;;6.10;3.70;;;;;;;34.10;32.58;99820.63;4913268;28;98042;-81
2021/07/29 09:27:50;;;;;;;6.05;3.97;;;;;;;34.28;31.63;99819.91;4912147;28;101038;-81
2021/07/29 09:30:27;;;;;;;5.47;4.10;;;;;;;33.50;32.90;99815.38;4925357;28;97994;-81
2021/07/29 09:32:56;;;;;;;4.68;4.03;;;;;;;33.51;33.13;99817.03;4928092;28;97248;-82
2021/07/29 09:35:41;;;;;;;5.95;3.30;;;;;;;33.05;34.45;99813.38;4925135;28;99298;-82
2021/07/29 09:38:27;;;;;;;4.78;2.58;;;;;;;33.41;32.98;99803.88;4932118;28;101749;-82
2021/07/29 09:41:02;;;;;;;7.03;3.85;;;;;;;33.06;34.60;99820.47;4925874;28;96730;-83
2021/07/29 09:43:32;;;;;;;8.45;3.60;;;;;;;32.56;34.71;99820.03;4914980;28;96892;-86
2021/07/29 09:46:15;;;;;;;4.95;3.42;;;;;;;32.45;35.55;99828.81;4916717;28;101451;-79
2021/07/29 09:48:41;;;;;;;7.22;3.53;;;;;;;31.73;37.47;99814.75;4933421;28;101774;-88
2021/07/29 09:51:08;;;;;;;12.50;4.47;;;;;;;31.27;37.98;99828.00;4933244;28;96604;-86
2021/07/29 09:53:34;;;;;;;6.07;3.63;;;;;;;31.19;38.27;99825.47;4932631;28;96818;-87
2021/07/29 09:56:01;;;;;;;5.45;3.60;;;;;;;31.06;38.83;99818.91;4932273;28;101452;-87
2021/07/29 09:58:26;;;;;;;5.65;3.55;;;;;;;31.57;37.80;99821.34;4932743;28;99654;-87
2021/07/29 10:00:52;;;;;;;5.30;3.72;;;;;;;31.62;37.71;99818.06;4933022;28;96639;-87
2021/07/29 10:03:22;;;;;;;5.60;3.67;;;;;;;31.40;38.09;99822.72;4933351;28;96956;-90
2021/07/29 10:05:56;;;;;;;4.50;3.15;;;;;;;31.18;37.56;99824.63;4912680;28;98486;-86
2021/07/29 10:08:32;;;;;;;5.72;3.15;;;;;;;30.94;38.39;99825.91;4917235;28;98135;-87
2021/07/29 10:11:04;;;;;;;4.43;3.38;;;;;;;30.50;38.87;99834.25;4916907;28;97058;-85
2021/07/29 10:13:35;;;;;;;7.82;3.63;;;;;;;30.36;37.55;99836.81;4900360;28;96816;-90
2021/07/29 10:16:01;;;;;;;5.72;3.22;;;;;;;30.17;37.66;99829.31;4932730;28;97697;-87
2021/07/29 10:18:26;;;;;;;4.53;2.92;;;;;;;29.78;37.49;99841.31;4897134;28;100234;-86
2021/07/29 10:21:22;;;;;;;3.92;3.53;;;;;;;29.58;37.25;99840.16;4909375;28;97799;-88
2021/07/29 10:23:57;;;;;;;3.40;3.10;;;;;;;29.45;37.53;99838.97;4899288;28;96884;-89
2021/07/29 10:26:23;;;;;;;3.55;3.05;;;;;;;29.57;36.98;99831.22;4907107;28;101568;-86
2021/07/29 10:28:49;;;;;;;5.10;2.90;;;;;;;29.87;37.12;99837.47;4947830;28;99630;-82
2021/07/29 10:31:16;;;;;;;3.95;3.00;;;;;;;30.26;37.42;99833.59;4916724;28;96856;-85
2021/07/29 10:33:43;;;;;;;4.07;2.63;;;;;;;30.53;36.11;99831.16;4931030;28;97560;-83
2021/07/29 10:36:42;;;;;;;4.15;2.95;;;;;;;30.64;35.60;99828.75;4911467;28;101310;-82
2021/07/29 10:39:07;;;;;;;6.38;3.03;;;;;;;30.80;35.69;99818.72;4917807;28;98580;-84
2021/07/29 10:41:32;;;;;;;6.45;2.97;;;;;;;30.83;35.54;99819.16;4913821;28;96968;-85
2021/07/29 10:43:58;;;;;;;3.83;3.42;;;;;;;31.13;33.75;99821.69;4946485;28;97245;-84
2021/07/29 10:47:02;;;;;;;4.72;3.08;;;;;;;31.04;34.28;99814.72;4929359;28;98610;-84
2021/07/29 10:49:46;;;;;;;5.35;3.15;;;;;;;31.20;33.94;99827.97;4913641;28;102793;-85
2021/07/29 10:52:13;;;;;;;5.28;2.60;;;;;;;31.11;33.96;99821.03;4906505;28;97201;-84
2021/07/29 10:54:41;;;;;;;12.82;3.30;;;;;;;31.10;34.41;99831.06;4893939;28;96935;-85
2021/07/29 10:57:08;;;;;;;7.13;2.97;;;;;;;31.30;34.21;99823.06;4912212;28;99053;-84
2021/07/29 10:59:35;;;;;;;7.22;3.25;;;;;;;31.37;34.89;99827.72;4896530;28;101355;-84
2021/07/29 11:02:04;;;;;;;5.68;3.28;;;;;;;31.22;34.27;99830.50;4929222;28;97326;-83
2021/07/29 11:04:30;;;;;;;7.03;2.92;;;;;;;31.23;34.59;99826.75;4910046;28;97958;-87
2021/07/29 11:07:00;;;;;;;3.22;2.92;;;;;;;30.96;33.50;99818.44;4916687;28;101067;-84
2021/07/29 11:09:33;;;;;;;6.55;3.05;;;;;;;30.64;33.67;99815.22;4911886;28;98287;-87
2021/07/29 11:11:59;;;;;;;2.97;2.78;;;;;;;30.63;35.50;99840.63;4924449;28;97330;-84
2021/07/29 11:14:33;;;;;;;4.70;3.28;;;;;;;30.43;35.80;99831.47;4911755;28;97036;-81
2021/07/29 11:17:02;;;;;;;9.82;3.25;;;;;;;30.31;35.42;99828.44;4928942;28;101120;-82
2021/07/29 11:19:28;;;;;;;6.45;2.90;;;;;;;30.38;35.55;99831.22;4929770;28;101319;-88
2021/07/29 11:22:03;;;;;;;7.15;3.17;;;;;;;30.87;34.58;99823.16;4929368;28;96802;-84
2021/07/29 11:24:30;;;;;;;6.80;3.67;;;;;;;30.78;35.09;99823.47;4929160;28;97262;-83
2021/07/29 11:26:56;;;;;;;7.10;3.38;;;;;;;30.73;34.69;99815.09;4929473;28;101428;-83
2021/07/29 11:29:21;;;;;;;7.38;3.13;;;;;;;30.57;35.13;99811.59;4912459;28;98539;-80
2021/07/29 11:31:51;;;;;;;3.20;2.90;;;;;;;30.43;34.21;99812.53;4907739;28;97153;-81
2021/07/29 11:34:17;;;;;;;3.83;2.90;;;;;;;30.12;35.68;99824.44;4926374;28;98096;-78